createdAt,value
2018-09-15T00:00:59.171Z,16.74
2018-09-15T00:03:27.680Z,16.79
2018-09-15T00:05:56.482Z,16.87
2018-09-15T00:08:25.054Z,16.92
2018-09-15T00:10:53.486Z,16.93
2018-09-15T00:13:23.101Z,16.98
2018-09-15T00:15:51.595Z,17.06
2018-09-15T00:18:20.062Z,17.12
2018-09-15T00:20:48.497Z,17.19
2018-09-15T00:23:16.930Z,17.26
2018-09-15T00:25:45.435Z,17.33
2018-09-15T00:28:14.810Z,17.37
2018-09-15T00:30:43.302Z,17.37
2018-09-15T00:33:11.877Z,17.35
2018-09-15T00:35:40.702Z,17.27
2018-09-15T00:38:09.310Z,17.11
2018-09-15T00:40:37.706Z,16.94
2018-09-15T00:43:06.210Z,16.78
2018-09-15T00:45:34.709Z,16.62
2018-09-15T00:48:03.210Z,16.48
2018-09-15T00:50:31.626Z,16.47
2018-09-15T00:53:00.129Z,16.49
2018-09-15T00:55:28.581Z,16.54
2018-09-15T00:57:57.258Z,16.53
2018-09-15T01:00:25.687Z,16.59
2018-09-15T01:02:54.323Z,16.57
2018-09-15T01:05:22.861Z,16.52
2018-09-15T01:07:51.306Z,16.44
2018-09-15T01:10:19.838Z,16.39
2018-09-15T01:12:48.285Z,16.37
2018-09-15T01:15:16.795Z,16.43
2018-09-15T01:17:45.237Z,16.51
2018-09-15T01:20:13.781Z,16.60
2018-09-15T01:22:42.191Z,16.71
2018-09-15T01:25:10.718Z,16.81
2018-09-15T01:27:39.203Z,16.89
2018-09-15T01:30:07.693Z,16.91
2018-09-15T01:32:36.133Z,16.89
2018-09-15T01:35:04.669Z,16.89
2018-09-15T01:37:33.086Z,16.88
2018-09-15T01:40:01.613Z,16.93
2018-09-15T01:42:30.053Z,16.96
2018-09-15T01:44:58.887Z,17.01
2018-09-15T01:47:27.357Z,17.06
2018-09-15T01:49:56.190Z,17.04
2018-09-15T01:52:24.925Z,16.97
2018-09-15T01:54:53.390Z,16.91
2018-09-15T01:57:21.889Z,16.84
2018-09-15T01:59:50.361Z,16.83
2018-09-15T02:02:18.893Z,16.87
2018-09-15T02:04:47.314Z,16.90
2018-09-15T02:07:15.801Z,16.90
2018-09-15T02:09:44.302Z,16.85
2018-09-15T02:12:12.759Z,16.84
2018-09-15T02:14:41.269Z,16.79
2018-09-15T02:17:09.801Z,16.78
2018-09-15T02:19:38.295Z,16.79
2018-09-15T02:22:06.860Z,16.73
2018-09-15T02:24:35.262Z,16.65
2018-09-15T02:27:03.778Z,16.55
2018-09-15T02:29:32.293Z,16.43
2018-09-15T02:32:00.754Z,16.25
2018-09-15T02:34:29.187Z,16.16
2018-09-15T02:36:58.250Z,16.05
2018-09-15T02:39:26.717Z,16.00
2018-09-15T02:41:55.202Z,15.91
2018-09-15T02:44:23.913Z,15.88
2018-09-15T02:46:52.352Z,15.84
2018-09-15T02:49:20.826Z,15.73
2018-09-15T02:51:49.312Z,15.56
2018-09-15T02:54:17.761Z,15.39
2018-09-15T02:56:46.269Z,15.25
2018-09-15T02:59:14.741Z,15.15
2018-09-15T03:01:43.231Z,15.01
2018-09-15T03:04:11.693Z,14.91
2018-09-15T03:06:40.301Z,14.93
2018-09-15T03:09:10.586Z,14.91
2018-09-15T03:11:39.091Z,14.91
2018-09-15T03:14:07.575Z,14.94
2018-09-15T03:16:36.269Z,14.97
2018-09-15T03:19:04.761Z,14.99
2018-09-15T03:21:33.262Z,15.08
2018-09-15T03:24:01.733Z,15.22
2018-09-15T03:26:30.594Z,15.33
2018-09-15T03:28:59.298Z,15.46
2018-09-15T03:31:27.787Z,15.55
2018-09-15T03:33:56.314Z,15.65
2018-09-15T03:36:25.058Z,15.73
2018-09-15T03:38:53.556Z,15.78
2018-09-15T03:41:22.102Z,15.74
2018-09-15T03:43:50.561Z,15.66
2018-09-15T03:46:19.053Z,15.52
2018-09-15T03:48:47.815Z,15.42
2018-09-15T03:51:16.230Z,15.34
2018-09-15T03:53:44.898Z,15.26
2018-09-15T03:56:13.478Z,15.22
2018-09-15T03:58:42.006Z,15.23
2018-09-15T04:01:10.577Z,15.29
2018-09-15T04:03:39.098Z,15.39
2018-09-15T04:06:07.568Z,15.52
2018-09-15T04:08:36.010Z,15.60
2018-09-15T04:11:04.510Z,15.66
2018-09-15T04:13:32.974Z,15.73
2018-09-15T04:16:01.442Z,15.77
2018-09-15T04:18:29.933Z,15.82
2018-09-15T04:20:58.754Z,15.89
2018-09-15T04:23:27.197Z,15.92
2018-09-15T04:25:55.689Z,15.85
2018-09-15T04:28:24.473Z,15.86
2018-09-15T04:30:53.014Z,15.83
2018-09-15T04:33:21.437Z,15.86
2018-09-15T04:35:49.905Z,15.88
2018-09-15T04:38:18.410Z,15.83
2018-09-15T04:40:47.010Z,15.80
2018-09-15T04:43:15.475Z,15.82
2018-09-15T04:45:43.921Z,15.80
2018-09-15T04:48:12.335Z,15.74
2018-09-15T04:50:40.793Z,15.65
2018-09-15T04:53:09.385Z,15.54
2018-09-15T04:55:37.990Z,15.40
2018-09-15T04:58:06.534Z,15.22
2018-09-15T05:00:34.982Z,15.10
2018-09-15T05:03:03.488Z,15.02
2018-09-15T05:05:31.922Z,14.89
2018-09-15T05:08:00.374Z,14.86
2018-09-15T05:10:28.912Z,14.84
2018-09-15T05:12:57.474Z,14.89
2018-09-15T05:15:26.906Z,15.03
2018-09-15T05:17:55.506Z,15.06
2018-09-15T05:20:24.079Z,15.08
2018-09-15T05:22:52.494Z,15.00
2018-09-15T05:25:20.992Z,14.95
2018-09-15T05:27:49.461Z,14.89
2018-09-15T05:30:17.952Z,14.87
2018-09-15T05:32:46.409Z,14.85
2018-09-15T05:35:14.913Z,14.84
2018-09-15T05:41:15.155Z,14.75
2018-09-15T05:43:43.623Z,14.69
2018-09-15T05:46:12.134Z,14.68
2018-09-15T05:48:40.590Z,14.71
2018-09-15T05:51:09.111Z,14.73
2018-09-15T05:53:37.566Z,14.72
2018-09-15T05:56:06.093Z,14.74
2018-09-15T05:58:34.526Z,14.73
2018-09-15T06:01:03.069Z,14.72
2018-09-15T06:03:31.505Z,14.75
2018-09-15T06:06:00.392Z,14.76
2018-09-15T06:08:28.850Z,14.79
2018-09-15T06:10:57.738Z,14.84
2018-09-15T06:13:26.258Z,14.84
2018-09-15T06:15:54.738Z,14.89
2018-09-15T06:18:23.542Z,14.89
2018-09-15T06:20:52.058Z,14.87
2018-09-15T06:23:20.453Z,14.91
2018-09-15T06:25:48.968Z,14.91
2018-09-15T06:28:17.429Z,14.94
2018-09-15T06:30:45.934Z,15.05
2018-09-15T06:33:14.390Z,15.14
2018-09-15T06:35:42.930Z,15.24
2018-09-15T06:38:11.359Z,15.37
2018-09-15T06:40:40.294Z,15.49
2018-09-15T06:43:08.730Z,15.54
2018-09-15T06:45:37.252Z,15.65
2018-09-15T06:48:05.742Z,15.65
2018-09-15T06:50:34.169Z,15.75
2018-09-15T06:53:02.663Z,15.79
2018-09-15T06:55:31.149Z,15.86
2018-09-15T06:57:59.641Z,15.93
2018-09-15T07:00:28.172Z,16.02
2018-09-15T07:02:56.756Z,16.11
2018-09-15T07:05:25.330Z,16.16
2018-09-15T07:07:53.757Z,16.22
2018-09-15T07:10:22.210Z,16.32
2018-09-15T07:12:50.750Z,16.41
2018-09-15T07:15:19.198Z,16.43
2018-09-15T07:17:47.689Z,16.45
2018-09-15T07:20:16.186Z,16.50
2018-09-15T07:22:44.721Z,16.67
2018-09-15T07:25:13.282Z,16.81
2018-09-15T07:27:41.867Z,16.94
2018-09-15T07:30:10.468Z,17.14
2018-09-15T07:32:38.893Z,17.26
2018-09-15T07:35:07.366Z,17.44
2018-09-15T07:37:35.948Z,17.55
2018-09-15T07:40:04.490Z,17.46
2018-09-15T07:42:32.944Z,17.55
2018-09-15T07:45:01.645Z,17.53
2018-09-15T07:47:30.125Z,17.59
2018-09-15T07:49:58.814Z,17.69
2018-09-15T07:52:27.318Z,17.78
2018-09-15T07:54:55.986Z,17.92
2018-09-15T07:57:24.748Z,17.78
2018-09-15T07:59:53.270Z,17.76
2018-09-15T08:02:23.042Z,17.97
2018-09-15T08:04:52.097Z,17.95
2018-09-15T08:07:20.603Z,17.88
2018-09-15T08:09:49.126Z,17.74
2018-09-15T08:12:18.469Z,17.76
2018-09-15T08:14:47.271Z,17.98
2018-09-15T08:17:15.813Z,18.13
2018-09-15T08:19:44.385Z,18.47
2018-09-15T08:22:12.886Z,18.85
2018-09-15T08:24:41.360Z,19.11
2018-09-15T08:27:09.765Z,19.16
2018-09-15T08:29:38.478Z,19.11
2018-09-15T08:32:07.127Z,18.99
2018-09-15T08:34:35.594Z,18.90
2018-09-15T08:37:04.170Z,18.94
2018-09-15T08:39:32.846Z,18.75
2018-09-15T08:42:01.300Z,18.53
2018-09-15T08:44:29.813Z,18.48
2018-09-15T08:46:58.534Z,18.60
2018-09-15T08:49:27.074Z,18.63
2018-09-15T08:51:55.524Z,18.63
2018-09-15T08:54:24.073Z,18.95
2018-09-15T08:56:52.562Z,18.87
2018-09-15T08:59:21.053Z,19.12
2018-09-15T09:01:49.555Z,19.39
2018-09-15T09:04:18.071Z,19.47
2018-09-15T09:06:46.498Z,19.62
2018-09-15T09:09:14.994Z,19.60
2018-09-15T09:11:43.446Z,19.63
2018-09-15T09:14:11.946Z,19.72
2018-09-15T09:16:40.417Z,19.92
2018-09-15T09:19:08.927Z,19.85
2018-09-15T09:21:37.377Z,19.90
2018-09-15T09:24:05.933Z,20.03
2018-09-15T09:26:34.395Z,20.26
2018-09-15T09:29:02.845Z,20.39
2018-09-15T09:31:31.346Z,20.68
2018-09-15T09:33:59.842Z,20.92
2018-09-15T09:36:28.291Z,21.19
2018-09-15T09:38:56.924Z,21.94
2018-09-15T09:41:25.582Z,22.20
2018-09-15T09:43:54.030Z,22.63
2018-09-15T09:46:22.527Z,23.10
2018-09-15T09:48:51.034Z,23.58
2018-09-15T09:51:19.603Z,23.42
2018-09-15T09:53:48.224Z,23.97
2018-09-15T09:56:16.641Z,24.30
2018-09-15T09:58:45.158Z,24.88
2018-09-15T10:01:18.810Z,25.30
2018-09-15T10:03:47.322Z,26.00
2018-09-15T10:06:15.808Z,26.24
2018-09-15T10:08:44.269Z,26.56
2018-09-15T10:11:13.706Z,26.48
2018-09-15T10:13:42.408Z,27.06
2018-09-15T10:16:10.850Z,27.31
2018-09-15T10:18:39.350Z,26.98
2018-09-15T10:21:07.809Z,27.39
2018-09-15T10:23:36.281Z,27.77
2018-09-15T10:26:04.969Z,28.34
2018-09-15T10:28:33.520Z,28.41
2018-09-15T10:31:01.988Z,27.64
2018-09-15T10:33:30.425Z,27.32
2018-09-15T10:35:59.147Z,27.54
2018-09-15T10:38:27.650Z,26.80
2018-09-15T10:40:56.116Z,25.48
2018-09-15T10:43:24.652Z,25.31
2018-09-15T10:45:53.191Z,25.97
2018-09-15T10:48:21.593Z,28.23
2018-09-15T10:50:50.110Z,29.25
2018-09-15T10:53:18.614Z,29.42
2018-09-15T10:55:47.066Z,29.30
2018-09-15T10:58:15.503Z,28.94
2018-09-15T11:00:44.088Z,29.27
2018-09-15T11:03:12.486Z,29.52
2018-09-15T11:05:40.976Z,29.00
2018-09-15T11:08:09.514Z,29.06
2018-09-15T11:10:37.933Z,30.03
2018-09-15T11:13:06.851Z,31.69
2018-09-15T11:15:35.327Z,32.10
2018-09-15T11:18:03.854Z,29.83
2018-09-15T11:20:32.281Z,28.32
2018-09-15T11:23:00.788Z,29.90
2018-09-15T11:25:29.258Z,31.32
2018-09-15T11:27:57.982Z,31.99
2018-09-15T11:30:26.416Z,32.16
2018-09-15T11:32:56.010Z,32.96
2018-09-15T11:35:24.522Z,33.21
2018-09-15T11:37:52.993Z,33.68
2018-09-15T11:40:21.477Z,34.51
2018-09-15T11:42:49.966Z,34.30
2018-09-15T11:45:18.429Z,33.69
2018-09-15T11:47:47.054Z,33.69
2018-09-15T11:50:15.498Z,34.59
2018-09-15T11:52:44.029Z,35.41
2018-09-15T11:55:12.478Z,35.21
2018-09-15T11:57:41.037Z,35.44
2018-09-15T12:00:09.659Z,36.07
2018-09-15T12:02:38.071Z,34.82
2018-09-15T12:05:06.523Z,36.12
2018-09-15T12:07:34.981Z,35.57
2018-09-15T12:10:03.538Z,34.82
2018-09-15T12:12:32.044Z,35.42
2018-09-15T12:15:00.497Z,36.49
2018-09-15T12:17:29.114Z,36.19
2018-09-15T12:19:57.750Z,36.93
2018-09-15T12:22:26.436Z,36.63
2018-09-15T12:24:54.959Z,36.67
2018-09-15T12:27:23.726Z,37.50
2018-09-15T12:29:52.237Z,36.32
2018-09-15T12:32:20.690Z,37.54
2018-09-15T12:34:49.198Z,37.43
2018-09-15T12:37:17.848Z,37.78
2018-09-15T12:39:46.388Z,38.64
2018-09-15T12:42:14.854Z,38.76
2018-09-15T12:44:43.365Z,37.82
2018-09-15T12:47:11.886Z,37.08
2018-09-15T12:49:40.525Z,36.60
2018-09-15T12:52:09.053Z,36.17
2018-09-15T12:54:37.722Z,37.25
2018-09-15T12:57:06.626Z,38.39
2018-09-15T12:59:35.157Z,38.75
2018-09-15T13:02:03.638Z,39.25
2018-09-15T13:04:32.118Z,40.01
2018-09-15T13:07:00.581Z,41.23
2018-09-15T13:09:29.133Z,40.12
2018-09-15T13:11:57.889Z,40.36
2018-09-15T13:14:26.430Z,39.86
2018-09-15T13:16:54.989Z,40.35
2018-09-15T13:19:23.641Z,39.63
2018-09-15T13:21:52.102Z,39.68
2018-09-15T13:24:20.582Z,38.85
2018-09-15T13:26:49.130Z,40.53
2018-09-15T13:29:17.650Z,40.39
2018-09-15T13:31:46.134Z,40.83
2018-09-15T13:34:14.707Z,40.16
2018-09-15T13:36:43.355Z,38.93
2018-09-15T13:39:12.539Z,37.82
2018-09-15T13:41:41.002Z,39.23
2018-09-15T13:44:10.141Z,40.10
2018-09-15T13:46:38.821Z,41.50
2018-09-15T13:49:07.638Z,39.81
2018-09-15T13:51:36.122Z,40.36
2018-09-15T13:54:04.655Z,41.58
2018-09-15T13:56:33.154Z,41.03
2018-09-15T13:59:01.756Z,40.88
2018-09-15T14:01:30.158Z,41.38
2018-09-15T14:03:59.200Z,40.02
2018-09-15T14:06:27.733Z,39.62
2018-09-15T14:08:56.252Z,39.62
2018-09-15T14:11:24.771Z,39.15
2018-09-15T14:13:53.437Z,40.91
2018-09-15T14:16:22.037Z,40.44
2018-09-15T14:18:50.449Z,40.03
2018-09-15T14:21:18.927Z,40.73
2018-09-15T14:23:47.389Z,41.53
2018-09-15T14:26:15.927Z,41.18
2018-09-15T14:28:44.361Z,41.23
2018-09-15T14:31:12.874Z,40.60
2018-09-15T14:33:41.385Z,40.44
2018-09-15T14:36:09.833Z,42.44
2018-09-15T14:38:38.325Z,41.59
2018-09-15T14:41:07.394Z,41.97
2018-09-15T14:43:35.869Z,41.62
2018-09-15T14:46:04.366Z,39.74
2018-09-15T14:48:32.819Z,40.42
2018-09-15T14:51:01.311Z,39.79
2018-09-15T14:53:29.888Z,39.40
2018-09-15T14:55:58.881Z,38.75
2018-09-15T14:58:27.527Z,39.48
2018-09-15T15:00:56.014Z,40.11
2018-09-15T15:03:24.622Z,40.38
2018-09-15T15:05:53.206Z,40.08
2018-09-15T15:08:21.886Z,39.56
2018-09-15T15:10:50.421Z,39.28
2018-09-15T15:13:18.910Z,39.89
2018-09-15T15:15:47.389Z,38.93
2018-09-15T15:18:16.024Z,39.50
2018-09-15T15:20:44.541Z,38.86
2018-09-15T15:23:13.075Z,39.02
2018-09-15T15:25:41.658Z,39.16
2018-09-15T15:28:10.150Z,39.07
2018-09-15T15:30:38.934Z,38.54
2018-09-15T15:33:07.722Z,39.57
2018-09-15T15:35:36.629Z,39.03
2018-09-15T15:38:04.986Z,38.74
2018-09-15T15:40:33.503Z,38.34
2018-09-15T15:43:01.985Z,38.28
2018-09-15T15:45:30.633Z,39.15
2018-09-15T15:47:59.422Z,36.95
2018-09-15T15:50:27.822Z,36.09
2018-09-15T15:52:56.415Z,37.30
2018-09-15T15:55:25.067Z,36.89
2018-09-15T15:57:53.491Z,36.13
2018-09-15T16:00:21.972Z,35.85
2018-09-15T16:02:50.566Z,36.14
2018-09-15T16:05:19.033Z,36.78
2018-09-15T16:07:47.627Z,36.21
2018-09-15T16:10:16.090Z,35.86
2018-09-15T16:12:44.701Z,34.43
2018-09-15T16:15:13.226Z,33.91
2018-09-15T16:17:41.759Z,34.87
2018-09-15T16:20:10.207Z,33.77
2018-09-15T16:22:38.714Z,34.56
2018-09-15T16:25:07.182Z,34.50
2018-09-15T16:27:35.858Z,34.98
2018-09-15T16:30:04.835Z,33.96
2018-09-15T16:32:33.254Z,34.47
2018-09-15T16:35:01.759Z,33.77
2018-09-15T16:37:30.386Z,32.93
2018-09-15T16:39:59.460Z,32.87
2018-09-15T16:42:27.909Z,32.17
2018-09-15T16:44:56.811Z,32.57
2018-09-15T16:47:25.474Z,31.21
2018-09-15T16:49:54.094Z,30.31
2018-09-15T16:52:22.706Z,27.40
2018-09-15T16:54:51.197Z,25.49
2018-09-15T16:57:19.737Z,24.39
2018-09-15T16:59:48.226Z,23.61
2018-09-15T17:02:16.645Z,23.09
2018-09-15T17:04:45.215Z,22.76
2018-09-15T17:07:13.797Z,22.40
2018-09-15T17:09:42.232Z,22.10
2018-09-15T17:12:10.730Z,21.85
2018-09-15T17:14:39.173Z,21.67
2018-09-15T17:17:07.823Z,21.49
2018-09-15T17:19:36.757Z,21.23
2018-09-15T17:22:05.517Z,21.08
2018-09-15T17:24:34.329Z,20.87
2018-09-15T17:27:02.948Z,20.78
2018-09-15T17:29:31.361Z,20.67
2018-09-15T17:32:01.067Z,20.51
2018-09-15T17:34:29.489Z,20.35
2018-09-15T17:36:58.243Z,20.15
2018-09-15T17:39:26.784Z,20.07
2018-09-15T17:41:55.395Z,19.97
2018-09-15T17:44:23.831Z,19.78
2018-09-15T17:46:52.414Z,19.65
2018-09-15T17:49:21.050Z,19.51
2018-09-15T17:51:49.683Z,19.38
2018-09-15T17:54:18.172Z,19.29
2018-09-15T17:56:46.631Z,19.27
2018-09-15T17:59:15.435Z,19.25
2018-09-15T18:01:43.894Z,19.16
2018-09-15T18:04:12.542Z,18.99
2018-09-15T18:06:40.970Z,18.83
2018-09-15T18:09:09.592Z,18.80
2018-09-15T18:11:38.646Z,18.72
2018-09-15T18:14:07.214Z,18.62
2018-09-15T18:16:35.610Z,18.43
2018-09-15T18:19:04.193Z,18.20
2018-09-15T18:21:32.678Z,18.07
2018-09-15T18:24:01.522Z,17.99
2018-09-15T18:26:29.950Z,17.92
2018-09-15T18:28:58.853Z,17.84
2018-09-15T18:31:27.277Z,17.81
2018-09-15T18:33:55.955Z,17.78
2018-09-15T18:36:24.569Z,17.69
2018-09-15T18:38:53.403Z,17.60
2018-09-15T18:41:22.090Z,17.48
2018-09-15T18:43:50.560Z,17.44
2018-09-15T18:46:19.394Z,17.35
2018-09-15T18:48:47.782Z,17.31
2018-09-15T18:51:16.450Z,17.23
2018-09-15T18:53:44.921Z,17.12
2018-09-15T18:56:13.725Z,17.06
2018-09-15T18:58:42.173Z,17.02
2018-09-15T19:01:10.762Z,16.97
2018-09-15T19:03:39.153Z,16.90
2018-09-15T19:06:07.819Z,16.88
2018-09-15T19:08:36.138Z,16.80
2018-09-15T19:11:04.592Z,16.70
2018-09-15T19:13:33.069Z,16.65
2018-09-15T19:16:01.562Z,16.57
2018-09-15T19:18:30.211Z,16.46
2018-09-15T19:20:59.085Z,16.32
2018-09-15T19:23:27.819Z,16.32
2018-09-15T19:25:56.397Z,16.26
2018-09-15T19:28:25.158Z,16.29
2018-09-15T19:30:53.668Z,16.33
2018-09-15T19:33:22.149Z,16.23
2018-09-15T19:35:50.885Z,16.15
2018-09-15T19:38:19.479Z,16.05
2018-09-15T19:40:48.006Z,15.98
2018-09-15T19:43:16.466Z,15.91
2018-09-15T19:45:45.434Z,15.88
2018-09-15T19:48:13.831Z,15.85
2018-09-15T19:50:42.468Z,15.81
2018-09-15T19:53:10.902Z,15.71
2018-09-15T19:55:39.434Z,15.60
2018-09-15T19:58:07.857Z,15.58
2018-09-15T20:00:36.417Z,15.57
2018-09-15T20:03:04.834Z,15.50
2018-09-15T20:05:33.331Z,15.41
2018-09-15T20:08:01.901Z,15.31
2018-09-15T20:10:30.523Z,15.28
2018-09-15T20:12:59.260Z,15.27
2018-09-15T20:15:27.847Z,15.20
2018-09-15T20:17:55.258Z,15.14
2018-09-15T20:20:23.258Z,15.10
2018-09-15T20:22:53.266Z,15.02
2018-09-15T20:25:21.713Z,14.96
2018-09-15T20:27:50.168Z,14.90
2018-09-15T20:30:18.820Z,14.86
2018-09-15T20:32:47.259Z,14.83
2018-09-15T20:35:15.876Z,14.83
2018-09-15T20:37:44.341Z,14.82
2018-09-15T20:40:12.975Z,14.81
2018-09-15T20:42:41.489Z,14.71
2018-09-15T20:45:10.053Z,14.62
2018-09-15T20:47:38.898Z,14.58
2018-09-15T20:50:08.610Z,14.51
2018-09-15T20:52:37.250Z,14.48
2018-09-15T20:55:06.273Z,14.45
2018-09-15T20:57:34.717Z,14.44
2018-09-15T21:00:03.356Z,14.42
2018-09-15T21:02:31.866Z,14.40
2018-09-15T21:05:00.434Z,14.31
2018-09-15T21:07:29.169Z,14.32
2018-09-15T21:09:58.179Z,14.32
2018-09-15T21:12:26.773Z,14.32
2018-09-15T21:14:55.231Z,14.31
2018-09-15T21:17:23.880Z,14.28
2018-09-15T21:19:52.386Z,14.21
2018-09-15T21:22:21.057Z,14.24
2018-09-15T21:24:49.525Z,14.14
2018-09-15T21:27:18.214Z,14.06
2018-09-15T21:29:46.742Z,14.00
2018-09-15T21:32:15.401Z,13.92
2018-09-15T21:34:43.985Z,13.91
2018-09-15T21:37:12.457Z,13.87
2018-09-15T21:39:41.102Z,13.83
2018-09-15T21:42:09.498Z,13.75
2018-09-15T21:44:38.009Z,13.69
2018-09-15T21:47:06.706Z,13.62
2018-09-15T21:49:35.239Z,13.63
2018-09-15T21:52:03.655Z,13.67
2018-09-15T21:54:32.142Z,13.66
2018-09-15T21:57:00.741Z,13.67
2018-09-15T21:59:29.217Z,13.67
2018-09-15T22:01:57.994Z,13.63
2018-09-15T22:04:26.449Z,13.59
2018-09-15T22:06:55.156Z,13.53
2018-09-15T22:09:23.680Z,13.47
2018-09-15T22:11:52.598Z,13.37
2018-09-15T22:14:21.030Z,13.34
2018-09-15T22:16:49.510Z,13.38
2018-09-15T22:19:18.162Z,13.38
2018-09-15T22:21:46.682Z,13.27
2018-09-15T22:24:15.558Z,13.17
2018-09-15T22:26:44.046Z,13.12
2018-09-15T22:29:12.637Z,13.10
2018-09-15T22:31:41.214Z,13.12
2018-09-15T22:34:09.837Z,13.00
2018-09-15T22:36:38.307Z,12.96
2018-09-15T22:39:08.297Z,12.94
2018-09-15T22:41:37.811Z,12.87
2018-09-15T22:44:06.497Z,12.87
2018-09-15T22:46:34.909Z,12.79
2018-09-15T22:49:03.406Z,12.77
2018-09-15T22:51:32.145Z,12.78
2018-09-15T22:54:00.705Z,12.74
2018-09-15T22:56:29.138Z,12.89
2018-09-15T22:58:57.637Z,12.85
2018-09-15T23:01:26.213Z,12.85
2018-09-15T23:03:59.894Z,12.83
2018-09-15T23:06:28.345Z,12.82
2018-09-15T23:08:57.343Z,12.75
2018-09-15T23:11:25.901Z,12.71
2018-09-15T23:13:54.360Z,12.62
2018-09-15T23:16:22.786Z,12.60
2018-09-15T23:18:51.321Z,12.55
2018-09-15T23:21:19.785Z,12.50
2018-09-15T23:23:48.213Z,12.44
2018-09-15T23:26:16.914Z,12.38
2018-09-15T23:28:45.382Z,12.29
2018-09-15T23:31:14.077Z,12.26
2018-09-15T23:33:42.565Z,12.22
2018-09-15T23:36:11.073Z,12.19
2018-09-15T23:38:39.527Z,12.19
2018-09-15T23:41:08.530Z,12.18
2018-09-15T23:43:36.986Z,12.12
2018-09-15T23:46:05.574Z,12.07
2018-09-15T23:48:33.978Z,12.02
2018-09-15T23:51:02.508Z,12.08
2018-09-15T23:53:30.913Z,12.08
2018-09-15T23:55:59.885Z,12.11
2018-09-15T23:58:28.289Z,12.15
